Aviation Digital Data Service (ADDS)

Output produced by METARs form (1734 UTC 03 June 2020)
found at http://www.aviationweather.gov/metar/data/
 
METAR text: WBGG 031700Z VRB02KT 9999 FEW020 26/25 Q1011 NOSIG
Conditions at: WBGG (KUCHING (CIV/MIL, MY) observed 1700 UTC 03 June 2020
Temperature: 26.0°C (79°F)
Dewpoint: 25.0°C (77°F) [RH = 94%]
Pressure (altimeter): 29.85 inches Hg (1011.0 mb)
Winds: variable direction winds at 2 MPH (2 knots; 1.0 m/s)
Visibility: 6 or more miles (10+ km)
Ceiling: at least 12,000 feet AGL
Clouds: few clouds at 2000 feet AGL
Weather: no significant weather observed at this time

METAR text: WBGG 031630Z VRB02KT 9999 FEW020 26/25 Q1011 NOSIG
Conditions at: WBGG (KUCHING (CIV/MIL, MY) observed 1630 UTC 03 June 2020
Temperature: 26.0°C (79°F)
Dewpoint: 25.0°C (77°F) [RH = 94%]
Pressure (altimeter): 29.85 inches Hg (1011.0 mb)
Winds: variable direction winds at 2 MPH (2 knots; 1.0 m/s)
Visibility: 6 or more miles (10+ km)
Ceiling: at least 12,000 feet AGL
Clouds: few clouds at 2000 feet AGL
Weather: no significant weather observed at this time

METAR text: WBGG 031600Z VRB01KT 9999 FEW020 26/25 Q1011 NOSIG
Conditions at: WBGG (KUCHING (CIV/MIL, MY) observed 1600 UTC 03 June 2020
Temperature: 26.0°C (79°F)
Dewpoint: 25.0°C (77°F) [RH = 94%]
Pressure (altimeter): 29.85 inches Hg (1011.0 mb)
Winds: variable direction winds at 1 MPH (1 knots; 0.5 m/s)
Visibility: 6 or more miles (10+ km)
Ceiling: at least 12,000 feet AGL
Clouds: few clouds at 2000 feet AGL
Weather: no significant weather observed at this time

METAR text: WBGG 031530Z VRB03KT 9999 FEW020 26/25 Q1011 NOSIG
Conditions at: WBGG (KUCHING (CIV/MIL, MY) observed 1530 UTC 03 June 2020
Temperature: 26.0°C (79°F)
Dewpoint: 25.0°C (77°F) [RH = 94%]
Pressure (altimeter): 29.85 inches Hg (1011.0 mb)
Winds: variable direction winds at 3 MPH (3 knots; 1.5 m/s)
Visibility: 6 or more miles (10+ km)
Ceiling: at least 12,000 feet AGL
Clouds: few clouds at 2000 feet AGL
Weather: no significant weather observed at this time

METAR text: WBGG 031500Z VRB02KT 9999 FEW015CB 26/25 Q1011 NOSIG
Conditions at: WBGG (KUCHING (CIV/MIL, MY) observed 1500 UTC 03 June 2020
Temperature: 26.0°C (79°F)
Dewpoint: 25.0°C (77°F) [RH = 94%]
Pressure (altimeter): 29.85 inches Hg (1011.0 mb)
Winds: variable direction winds at 2 MPH (2 knots; 1.0 m/s)
Visibility: 6 or more miles (10+ km)
Ceiling: at least 12,000 feet AGL
Clouds: few clouds at 1500 feet AGL
Weather: no significant weather observed at this time

METAR text: WBGG 031430Z 19003KT 9999 FEW015CB 26/25 Q1011 NOSIG
Conditions at: WBGG (KUCHING (CIV/MIL, MY) observed 1430 UTC 03 June 2020
Temperature: 26.0°C (79°F)
Dewpoint: 25.0°C (77°F) [RH = 94%]
Pressure (altimeter): 29.85 inches Hg (1011.0 mb)
Winds: from the S (190 degrees) at 3 MPH (3 knots; 1.5 m/s)
Visibility: 6 or more miles (10+ km)
Ceiling: at least 12,000 feet AGL
Clouds: few clouds at 1500 feet AGL
Weather: no significant weather observed at this time

METAR text: WBGG 031400Z VRB02KT 9999 FEW015CB 27/25 Q1010 NOSIG
Conditions at: WBGG (KUCHING (CIV/MIL, MY) observed 1400 UTC 03 June 2020
Temperature: 27.0°C (81°F)
Dewpoint: 25.0°C (77°F) [RH = 89%]
Pressure (altimeter): 29.82 inches Hg (1010.0 mb)
Winds: variable direction winds at 2 MPH (2 knots; 1.0 m/s)
Visibility: 6 or more miles (10+ km)
Ceiling: at least 12,000 feet AGL
Clouds: few clouds at 1500 feet AGL
Weather: no significant weather observed at this time

METAR text: WBGG 031330Z VRB02KT 9999 FEW015CB 27/25 Q1010 NOSIG
Conditions at: WBGG (KUCHING (CIV/MIL, MY) observed 1330 UTC 03 June 2020
Temperature: 27.0°C (81°F)
Dewpoint: 25.0°C (77°F) [RH = 89%]
Pressure (altimeter): 29.82 inches Hg (1010.0 mb)
Winds: variable direction winds at 2 MPH (2 knots; 1.0 m/s)
Visibility: 6 or more miles (10+ km)
Ceiling: at least 12,000 feet AGL
Clouds: few clouds at 1500 feet AGL
Weather: no significant weather observed at this time

METAR text: WBGG 031300Z VRB01KT 9999 FEW015CB SCT020 27/26 Q1010 NOSIG
Conditions at: WBGG (KUCHING (CIV/MIL, MY) observed 1300 UTC 03 June 2020
Temperature: 27.0°C (81°F)
Dewpoint: 26.0°C (79°F) [RH = 94%]
Pressure (altimeter): 29.82 inches Hg (1010.0 mb)
Winds: variable direction winds at 1 MPH (1 knots; 0.5 m/s)
Visibility: 6 or more miles (10+ km)
Ceiling: at least 12,000 feet AGL
Clouds: few clouds at 1500 feet AGL
scattered clouds at 2000 feet AGL
Weather: no significant weather observed at this time

METAR text: WBGG 031230Z VRB01KT 9999 TS FEW015CB SCT020 27/26 Q1010 NOSIG
Conditions at: WBGG (KUCHING (CIV/MIL, MY) observed 1230 UTC 03 June 2020
Temperature: 27.0°C (81°F)
Dewpoint: 26.0°C (79°F) [RH = 94%]
Pressure (altimeter): 29.82 inches Hg (1010.0 mb)
Winds: variable direction winds at 1 MPH (1 knots; 0.5 m/s)
Visibility: 6 or more miles (10+ km)
Ceiling: at least 12,000 feet AGL
Clouds: few clouds at 1500 feet AGL
scattered clouds at 2000 feet AGL
Weather: TS  (thunderstorm)

METAR text: WBGG 031200Z 21003KT 180V260 9999 TS FEW015CB SCT020 28/26 Q1009 NOSIG
Conditions at: WBGG (KUCHING (CIV/MIL, MY) observed 1200 UTC 03 June 2020
Temperature: 28.0°C (82°F)
Dewpoint: 26.0°C (79°F) [RH = 89%]
Pressure (altimeter): 29.79 inches Hg (1009.0 mb)
Winds: from the SSW (210 degrees) at 3 MPH (3 knots; 1.5 m/s)
Visibility: 6 or more miles (10+ km)
Ceiling: at least 12,000 feet AGL
Clouds: few clouds at 1500 feet AGL
scattered clouds at 2000 feet AGL
Weather: TS  (thunderstorm)

METAR text: WBGG 031130Z VRB03KT 9999 TS FEW015CB SCT020 28/26 Q1009 TEMPO 5000 TSRA
Conditions at: WBGG (KUCHING (CIV/MIL, MY) observed 1130 UTC 03 June 2020
Temperature: 28.0°C (82°F)
Dewpoint: 26.0°C (79°F) [RH = 89%]
Pressure (altimeter): 29.79 inches Hg (1009.0 mb)
Winds: variable direction winds at 3 MPH (3 knots; 1.5 m/s)
Visibility: 6 or more miles (10+ km)
Ceiling: at least 12,000 feet AGL
Clouds: few clouds at 1500 feet AGL
scattered clouds at 2000 feet AGL
Weather: TS  (thunderstorm)

METAR text: WBGG 031100Z 30004KT 260V330 9999 TS FEW015CB SCT020 28/26 Q1008 NOSIG
Conditions at: WBGG (KUCHING (CIV/MIL, MY) observed 1100 UTC 03 June 2020
Temperature: 28.0°C (82°F)
Dewpoint: 26.0°C (79°F) [RH = 89%]
Pressure (altimeter): 29.76 inches Hg (1008.0 mb)
Winds: from the WNW (300 degrees) at 5 MPH (4 knots; 2.1 m/s)
Visibility: 6 or more miles (10+ km)
Ceiling: at least 12,000 feet AGL
Clouds: few clouds at 1500 feet AGL
scattered clouds at 2000 feet AGL
Weather: TS  (thunderstorm)

METAR text: WBGG 031030Z 35004KT 300V050 9999 FEW015CB SCT020 29/25 Q1007 NOSIG
Conditions at: WBGG (KUCHING (CIV/MIL, MY) observed 1030 UTC 03 June 2020
Temperature: 29.0°C (84°F)
Dewpoint: 25.0°C (77°F) [RH = 79%]
Pressure (altimeter): 29.73 inches Hg (1007.0 mb)
Winds: from the N (350 degrees) at 5 MPH (4 knots; 2.1 m/s)
Visibility: 6 or more miles (10+ km)
Ceiling: at least 12,000 feet AGL
Clouds: few clouds at 1500 feet AGL
scattered clouds at 2000 feet AGL
Weather: no significant weather observed at this time

METAR text: WBGG 031000Z 34006KT 300V050 9999 FEW015CB SCT020 29/25 Q1007 NOSIG
Conditions at: WBGG (KUCHING (CIV/MIL, MY) observed 1000 UTC 03 June 2020
Temperature: 29.0°C (84°F)
Dewpoint: 25.0°C (77°F) [RH = 79%]
Pressure (altimeter): 29.73 inches Hg (1007.0 mb)
Winds: from the NNW (340 degrees) at 7 MPH (6 knots; 3.1 m/s)
Visibility: 6 or more miles (10+ km)
Ceiling: at least 12,000 feet AGL
Clouds: few clouds at 1500 feet AGL
scattered clouds at 2000 feet AGL
Weather: no significant weather observed at this time

METAR text: WBGG 030930Z 36006KT 310V040 9999 FEW015CB SCT020 29/26 Q1007 NOSIG
Conditions at: WBGG (KUCHING (CIV/MIL, MY) observed 0930 UTC 03 June 2020
Temperature: 29.0°C (84°F)
Dewpoint: 26.0°C (79°F) [RH = 84%]
Pressure (altimeter): 29.73 inches Hg (1007.0 mb)
Winds: from the N (360 degrees) at 7 MPH (6 knots; 3.1 m/s)
Visibility: 6 or more miles (10+ km)
Ceiling: at least 12,000 feet AGL
Clouds: few clouds at 1500 feet AGL
scattered clouds at 2000 feet AGL
Weather: no significant weather observed at this time

METAR text: WBGG 030900Z 34008KT 300V010 9999 FEW015CB SCT020 29/26 Q1007 NOSIG
Conditions at: WBGG (KUCHING (CIV/MIL, MY) observed 0900 UTC 03 June 2020
Temperature: 29.0°C (84°F)
Dewpoint: 26.0°C (79°F) [RH = 84%]
Pressure (altimeter): 29.73 inches Hg (1007.0 mb)
Winds: from the NNW (340 degrees) at 9 MPH (8 knots; 4.1 m/s)
Visibility: 6 or more miles (10+ km)
Ceiling: at least 12,000 feet AGL
Clouds: few clouds at 1500 feet AGL
scattered clouds at 2000 feet AGL
Weather: no significant weather observed at this time

METAR text: WBGG 030830Z 02006KT 330V080 9999 FEW015CB SCT020 30/26 Q1007 NOSIG
Conditions at: WBGG (KUCHING (CIV/MIL, MY) observed 0830 UTC 03 June 2020
Temperature: 30.0°C (86°F)
Dewpoint: 26.0°C (79°F) [RH = 79%]
Pressure (altimeter): 29.73 inches Hg (1007.0 mb)
Winds: from the NNE (20 degrees) at 7 MPH (6 knots; 3.1 m/s)
Visibility: 6 or more miles (10+ km)
Ceiling: at least 12,000 feet AGL
Clouds: few clouds at 1500 feet AGL
scattered clouds at 2000 feet AGL
Weather: no significant weather observed at this time

METAR text: WBGG 030800Z 08005KT 020V120 9999 FEW015CB SCT020 31/26 Q1006 NOSIG
Conditions at: WBGG (KUCHING (CIV/MIL, MY) observed 0800 UTC 03 June 2020
Temperature: 31.0°C (88°F)
Dewpoint: 26.0°C (79°F) [RH = 75%]
Pressure (altimeter): 29.70 inches Hg (1006.0 mb)
Winds: from the E (80 degrees) at 6 MPH (5 knots; 2.6 m/s)
Visibility: 6 or more miles (10+ km)
Ceiling: at least 12,000 feet AGL
Clouds: few clouds at 1500 feet AGL
scattered clouds at 2000 feet AGL
Weather: no significant weather observed at this time

METAR text: WBGG 030730Z 10005KT 050V160 9999 FEW015CB SCT020 33/26 Q1006 NOSIG
Conditions at: WBGG (KUCHING (CIV/MIL, MY) observed 0730 UTC 03 June 2020
Temperature: 33.0°C (91°F)
Dewpoint: 26.0°C (79°F) [RH = 67%]
Pressure (altimeter): 29.70 inches Hg (1006.0 mb)
Winds: from the E (100 degrees) at 6 MPH (5 knots; 2.6 m/s)
Visibility: 6 or more miles (10+ km)
Ceiling: at least 12,000 feet AGL
Clouds: few clouds at 1500 feet AGL
scattered clouds at 2000 feet AGL
Weather: no significant weather observed at this time

METAR text: WBGG 030700Z 14004KT 070V200 9999 SCT020 33/26 Q1007 NOSIG
Conditions at: WBGG (KUCHING (CIV/MIL, MY) observed 0700 UTC 03 June 2020
Temperature: 33.0°C (91°F)
Dewpoint: 26.0°C (79°F) [RH = 67%]
Pressure (altimeter): 29.73 inches Hg (1007.0 mb)
Winds: from the SE (140 degrees) at 5 MPH (4 knots; 2.1 m/s)
Visibility: 6 or more miles (10+ km)
Ceiling: at least 12,000 feet AGL
Clouds: scattered clouds at 2000 feet AGL
Weather: no significant weather observed at this time

METAR text: WBGG 030630Z 27003KT 210V350 9999 SCT020 34/25 Q1007 NOSIG
Conditions at: WBGG (KUCHING (CIV/MIL, MY) observed 0630 UTC 03 June 2020
Temperature: 34.0°C (93°F)
Dewpoint: 25.0°C (77°F) [RH = 60%]
Pressure (altimeter): 29.73 inches Hg (1007.0 mb)
Winds: from the W (270 degrees) at 3 MPH (3 knots; 1.5 m/s)
Visibility: 6 or more miles (10+ km)
Ceiling: at least 12,000 feet AGL
Clouds: scattered clouds at 2000 feet AGL
Weather: no significant weather observed at this time

METAR text: WBGG 030600Z VRB03KT 9999 SCT020 33/25 Q1007 NOSIG
Conditions at: WBGG (KUCHING (CIV/MIL, MY) observed 0600 UTC 03 June 2020
Temperature: 33.0°C (91°F)
Dewpoint: 25.0°C (77°F) [RH = 63%]
Pressure (altimeter): 29.73 inches Hg (1007.0 mb)
Winds: variable direction winds at 3 MPH (3 knots; 1.5 m/s)
Visibility: 6 or more miles (10+ km)
Ceiling: at least 12,000 feet AGL
Clouds: scattered clouds at 2000 feet AGL
Weather: no significant weather observed at this time

METAR text: WBGG 030530Z VRB03KT 9999 SCT020 33/26 Q1008 NOSIG
Conditions at: WBGG (KUCHING (CIV/MIL, MY) observed 0530 UTC 03 June 2020
Temperature: 33.0°C (91°F)
Dewpoint: 26.0°C (79°F) [RH = 67%]
Pressure (altimeter): 29.76 inches Hg (1008.0 mb)
Winds: variable direction winds at 3 MPH (3 knots; 1.5 m/s)
Visibility: 6 or more miles (10+ km)
Ceiling: at least 12,000 feet AGL
Clouds: scattered clouds at 2000 feet AGL
Weather: no significant weather observed at this time

METAR text: WBGG 030500Z 16003KT 110V260 9999 SCT020 32/26 Q1008 NOSIG
Conditions at: WBGG (KUCHING (CIV/MIL, MY) observed 0500 UTC 03 June 2020
Temperature: 32.0°C (90°F)
Dewpoint: 26.0°C (79°F) [RH = 71%]
Pressure (altimeter): 29.76 inches Hg (1008.0 mb)
Winds: from the SSE (160 degrees) at 3 MPH (3 knots; 1.5 m/s)
Visibility: 6 or more miles (10+ km)
Ceiling: at least 12,000 feet AGL
Clouds: scattered clouds at 2000 feet AGL
Weather: no significant weather observed at this time

METAR text: WBGG 030430Z 00000KT 9999 SCT018 32/25 Q1009 NOSIG
Conditions at: WBGG (KUCHING (CIV/MIL, MY) observed 0430 UTC 03 June 2020
Temperature: 32.0°C (90°F)
Dewpoint: 25.0°C (77°F) [RH = 67%]
Pressure (altimeter): 29.79 inches Hg (1009.0 mb)
Winds: calm
Visibility: 6 or more miles (10+ km)
Ceiling: at least 12,000 feet AGL
Clouds: scattered clouds at 1800 feet AGL
Weather: no significant weather observed at this time

METAR text: WBGG 030400Z VRB02KT 9999 SCT018 32/25 Q1010 NOSIG
Conditions at: WBGG (KUCHING (CIV/MIL, MY) observed 0400 UTC 03 June 2020
Temperature: 32.0°C (90°F)
Dewpoint: 25.0°C (77°F) [RH = 67%]
Pressure (altimeter): 29.82 inches Hg (1010.0 mb)
Winds: variable direction winds at 2 MPH (2 knots; 1.0 m/s)
Visibility: 6 or more miles (10+ km)
Ceiling: at least 12,000 feet AGL
Clouds: scattered clouds at 1800 feet AGL
Weather: no significant weather observed at this time

METAR text: WBGG 030330Z VRB01KT 9999 SCT016 31/26 Q1010 NOSIG
Conditions at: WBGG (KUCHING (CIV/MIL, MY) observed 0330 UTC 03 June 2020
Temperature: 31.0°C (88°F)
Dewpoint: 26.0°C (79°F) [RH = 75%]
Pressure (altimeter): 29.82 inches Hg (1010.0 mb)
Winds: variable direction winds at 1 MPH (1 knots; 0.5 m/s)
Visibility: 6 or more miles (10+ km)
Ceiling: at least 12,000 feet AGL
Clouds: scattered clouds at 1600 feet AGL
Weather: no significant weather observed at this time

METAR text: WBGG 030300Z 08003KT 010V150 9999 SCT016 31/25 Q1011 NOSIG
Conditions at: WBGG (KUCHING (CIV/MIL, MY) observed 0300 UTC 03 June 2020
Temperature: 31.0°C (88°F)
Dewpoint: 25.0°C (77°F) [RH = 71%]
Pressure (altimeter): 29.85 inches Hg (1011.0 mb)
Winds: from the E (80 degrees) at 3 MPH (3 knots; 1.5 m/s)
Visibility: 6 or more miles (10+ km)
Ceiling: at least 12,000 feet AGL
Clouds: scattered clouds at 1600 feet AGL
Weather: no significant weather observed at this time

METAR text: WBGG 030230Z VRB02KT 9999 FEW016 30/25 Q1012 NOSIG
Conditions at: WBGG (KUCHING (CIV/MIL, MY) observed 0230 UTC 03 June 2020
Temperature: 30.0°C (86°F)
Dewpoint: 25.0°C (77°F) [RH = 75%]
Pressure (altimeter): 29.88 inches Hg (1012.0 mb)
Winds: variable direction winds at 2 MPH (2 knots; 1.0 m/s)
Visibility: 6 or more miles (10+ km)
Ceiling: at least 12,000 feet AGL
Clouds: few clouds at 1600 feet AGL
Weather: no significant weather observed at this time

METAR text: WBGG 030200Z VRB03KT 9999 FEW016 28/25 Q1012 NOSIG
Conditions at: WBGG (KUCHING (CIV/MIL, MY) observed 0200 UTC 03 June 2020
Temperature: 28.0°C (82°F)
Dewpoint: 25.0°C (77°F) [RH = 84%]
Pressure (altimeter): 29.88 inches Hg (1012.0 mb)
Winds: variable direction winds at 3 MPH (3 knots; 1.5 m/s)
Visibility: 6 or more miles (10+ km)
Ceiling: at least 12,000 feet AGL
Clouds: few clouds at 1600 feet AGL
Weather: no significant weather observed at this time

METAR text: WBGG 030130Z 11005KT 070V160 9999 FEW014 FEW015CB 27/25 Q1012 NOSIG
Conditions at: WBGG (KUCHING (CIV/MIL, MY) observed 0130 UTC 03 June 2020
Temperature: 27.0°C (81°F)
Dewpoint: 25.0°C (77°F) [RH = 89%]
Pressure (altimeter): 29.88 inches Hg (1012.0 mb)
Winds: from the ESE (110 degrees) at 6 MPH (5 knots; 2.6 m/s)
Visibility: 6 or more miles (10+ km)
Ceiling: at least 12,000 feet AGL
Clouds: few clouds at 1400 feet AGL
few clouds at 1500 feet AGL
Weather: no significant weather observed at this time

METAR text: WBGG 030100Z 13003KT 100V170 9999 FEW014 FEW015CB 27/25 Q1013 NOSIG
Conditions at: WBGG (KUCHING (CIV/MIL, MY) observed 0100 UTC 03 June 2020
Temperature: 27.0°C (81°F)
Dewpoint: 25.0°C (77°F) [RH = 89%]
Pressure (altimeter): 29.91 inches Hg (1013.0 mb)
Winds: from the SE (130 degrees) at 3 MPH (3 knots; 1.5 m/s)
Visibility: 6 or more miles (10+ km)
Ceiling: at least 12,000 feet AGL
Clouds: few clouds at 1400 feet AGL
few clouds at 1500 feet AGL
Weather: no significant weather observed at this time

METAR text: WBGG 030030Z VRB02KT 9999 FEW012 FEW015CB 27/25 Q1012 NOSIG
Conditions at: WBGG (KUCHING (CIV/MIL, MY) observed 0030 UTC 03 June 2020
Temperature: 27.0°C (81°F)
Dewpoint: 25.0°C (77°F) [RH = 89%]
Pressure (altimeter): 29.88 inches Hg (1012.0 mb)
Winds: variable direction winds at 2 MPH (2 knots; 1.0 m/s)
Visibility: 6 or more miles (10+ km)
Ceiling: at least 12,000 feet AGL
Clouds: few clouds at 1200 feet AGL
few clouds at 1500 feet AGL
Weather: no significant weather observed at this time

METAR text: WBGG 030000Z 00000KT 9999 FEW012 FEW015CB 25/24 Q1012 NOSIG
Conditions at: WBGG (KUCHING (CIV/MIL, MY) observed 0000 UTC 03 June 2020
Temperature: 25.0°C (77°F)
Dewpoint: 24.0°C (75°F) [RH = 94%]
Pressure (altimeter): 29.88 inches Hg (1012.0 mb)
Winds: calm
Visibility: 6 or more miles (10+ km)
Ceiling: at least 12,000 feet AGL
Clouds: few clouds at 1200 feet AGL
few clouds at 1500 feet AGL
Weather: no significant weather observed at this time

METAR text: WBGG 022330Z VRB01KT 9999 FEW015CB 24/24 Q1012 NOSIG
Conditions at: WBGG (KUCHING (CIV/MIL, MY) observed 2330 UTC 02 June 2020
Temperature: 24.0°C (75°F)
Dewpoint: 24.0°C (75°F) [RH = 100%]
Pressure (altimeter): 29.88 inches Hg (1012.0 mb)
Winds: variable direction winds at 1 MPH (1 knots; 0.5 m/s)
Visibility: 6 or more miles (10+ km)
Ceiling: at least 12,000 feet AGL
Clouds: few clouds at 1500 feet AGL
Weather: no significant weather observed at this time

METAR text: WBGG 022300Z 00000KT 9999 FEW015CB SCT020 24/24 Q1011 NOSIG
Conditions at: WBGG (KUCHING (CIV/MIL, MY) observed 2300 UTC 02 June 2020
Temperature: 24.0°C (75°F)
Dewpoint: 24.0°C (75°F) [RH = 100%]
Pressure (altimeter): 29.85 inches Hg (1011.0 mb)
Winds: calm
Visibility: 6 or more miles (10+ km)
Ceiling: at least 12,000 feet AGL
Clouds: few clouds at 1500 feet AGL
scattered clouds at 2000 feet AGL
Weather: no significant weather observed at this time

METAR text: WBGG 022230Z 00000KT 9999 SCT020 24/24 Q1011 NOSIG
Conditions at: WBGG (KUCHING (CIV/MIL, MY) observed 2230 UTC 02 June 2020
Temperature: 24.0°C (75°F)
Dewpoint: 24.0°C (75°F) [RH = 100%]
Pressure (altimeter): 29.85 inches Hg (1011.0 mb)
Winds: calm
Visibility: 6 or more miles (10+ km)
Ceiling: at least 12,000 feet AGL
Clouds: scattered clouds at 2000 feet AGL
Weather: no significant weather observed at this time

METAR text: WBGG 022200Z 00000KT 9999 SCT020 24/24 Q1011 NOSIG
Conditions at: WBGG (KUCHING (CIV/MIL, MY) observed 2200 UTC 02 June 2020
Temperature: 24.0°C (75°F)
Dewpoint: 24.0°C (75°F) [RH = 100%]
Pressure (altimeter): 29.85 inches Hg (1011.0 mb)
Winds: calm
Visibility: 6 or more miles (10+ km)
Ceiling: at least 12,000 feet AGL
Clouds: scattered clouds at 2000 feet AGL
Weather: no significant weather observed at this time

METAR text: WBGG 022130Z 00000KT 9999 FEW020 24/24 Q1011 NOSIG
Conditions at: WBGG (KUCHING (CIV/MIL, MY) observed 2130 UTC 02 June 2020
Temperature: 24.0°C (75°F)
Dewpoint: 24.0°C (75°F) [RH = 100%]
Pressure (altimeter): 29.85 inches Hg (1011.0 mb)
Winds: calm
Visibility: 6 or more miles (10+ km)
Ceiling: at least 12,000 feet AGL
Clouds: few clouds at 2000 feet AGL
Weather: no significant weather observed at this time

METAR text: WBGG 022100Z 00000KT 9999 FEW020 24/24 Q1010 NOSIG
Conditions at: WBGG (KUCHING (CIV/MIL, MY) observed 2100 UTC 02 June 2020
Temperature: 24.0°C (75°F)
Dewpoint: 24.0°C (75°F) [RH = 100%]
Pressure (altimeter): 29.82 inches Hg (1010.0 mb)
Winds: calm
Visibility: 6 or more miles (10+ km)
Ceiling: at least 12,000 feet AGL
Clouds: few clouds at 2000 feet AGL
Weather: no significant weather observed at this time

METAR text: WBGG 022030Z 00000KT 9999 FEW020 24/24 Q1010 NOSIG
Conditions at: WBGG (KUCHING (CIV/MIL, MY) observed 2030 UTC 02 June 2020
Temperature: 24.0°C (75°F)
Dewpoint: 24.0°C (75°F) [RH = 100%]
Pressure (altimeter): 29.82 inches Hg (1010.0 mb)
Winds: calm
Visibility: 6 or more miles (10+ km)
Ceiling: at least 12,000 feet AGL
Clouds: few clouds at 2000 feet AGL
Weather: no significant weather observed at this time

METAR text: WBGG 022000Z 00000KT 9999 FEW020 24/24 Q1010 NOSIG
Conditions at: WBGG (KUCHING (CIV/MIL, MY) observed 2000 UTC 02 June 2020
Temperature: 24.0°C (75°F)
Dewpoint: 24.0°C (75°F) [RH = 100%]
Pressure (altimeter): 29.82 inches Hg (1010.0 mb)
Winds: calm
Visibility: 6 or more miles (10+ km)
Ceiling: at least 12,000 feet AGL
Clouds: few clouds at 2000 feet AGL
Weather: no significant weather observed at this time

METAR text: WBGG 021930Z VRB01KT 9999 FEW020 24/24 Q1010 NOSIG
Conditions at: WBGG (KUCHING (CIV/MIL, MY) observed 1930 UTC 02 June 2020
Temperature: 24.0°C (75°F)
Dewpoint: 24.0°C (75°F) [RH = 100%]
Pressure (altimeter): 29.82 inches Hg (1010.0 mb)
Winds: variable direction winds at 1 MPH (1 knots; 0.5 m/s)
Visibility: 6 or more miles (10+ km)
Ceiling: at least 12,000 feet AGL
Clouds: few clouds at 2000 feet AGL
Weather: no significant weather observed at this time

METAR text: WBGG 021900Z 00000KT 9999 FEW020 24/24 Q1010 NOSIG
Conditions at: WBGG (KUCHING (CIV/MIL, MY) observed 1900 UTC 02 June 2020
Temperature: 24.0°C (75°F)
Dewpoint: 24.0°C (75°F) [RH = 100%]
Pressure (altimeter): 29.82 inches Hg (1010.0 mb)
Winds: calm
Visibility: 6 or more miles (10+ km)
Ceiling: at least 12,000 feet AGL
Clouds: few clouds at 2000 feet AGL
Weather: no significant weather observed at this time

METAR text: WBGG 021830Z 00000KT 9999 FEW020 24/24 Q1010 NOSIG
Conditions at: WBGG (KUCHING (CIV/MIL, MY) observed 1830 UTC 02 June 2020
Temperature: 24.0°C (75°F)
Dewpoint: 24.0°C (75°F) [RH = 100%]
Pressure (altimeter): 29.82 inches Hg (1010.0 mb)
Winds: calm
Visibility: 6 or more miles (10+ km)
Ceiling: at least 12,000 feet AGL
Clouds: few clouds at 2000 feet AGL
Weather: no significant weather observed at this time

METAR text: WBGG 021800Z VRB02KT 9999 FEW020 25/24 Q1010 NOSIG
Conditions at: WBGG (KUCHING (CIV/MIL, MY) observed 1800 UTC 02 June 2020
Temperature: 25.0°C (77°F)
Dewpoint: 24.0°C (75°F) [RH = 94%]
Pressure (altimeter): 29.82 inches Hg (1010.0 mb)
Winds: variable direction winds at 2 MPH (2 knots; 1.0 m/s)
Visibility: 6 or more miles (10+ km)
Ceiling: at least 12,000 feet AGL
Clouds: few clouds at 2000 feet AGL
Weather: no significant weather observed at this time

METAR text: WBGG 021730Z VRB02KT 9999 FEW020 25/24 Q1011 NOSIG
Conditions at: WBGG (KUCHING (CIV/MIL, MY) observed 1730 UTC 02 June 2020
Temperature: 25.0°C (77°F)
Dewpoint: 24.0°C (75°F) [RH = 94%]
Pressure (altimeter): 29.85 inches Hg (1011.0 mb)
Winds: variable direction winds at 2 MPH (2 knots; 1.0 m/s)
Visibility: 6 or more miles (10+ km)
Ceiling: at least 12,000 feet AGL
Clouds: few clouds at 2000 feet AGL
Weather: no significant weather observed at this time

METAR text: WBGG 021700Z VRB02KT 9999 FEW020 25/24 Q1011 NOSIG
Conditions at: WBGG (KUCHING (CIV/MIL, MY) observed 1700 UTC 02 June 2020
Temperature: 25.0°C (77°F)
Dewpoint: 24.0°C (75°F) [RH = 94%]
Pressure (altimeter): 29.85 inches Hg (1011.0 mb)
Winds: variable direction winds at 2 MPH (2 knots; 1.0 m/s)
Visibility: 6 or more miles (10+ km)
Ceiling: at least 12,000 feet AGL
Clouds: few clouds at 2000 feet AGL
Weather: no significant weather observed at this time

METAR text: WBGG 021630Z 24003KT 200V290 9999 FEW020 25/24 Q1012 NOSIG
Conditions at: WBGG (KUCHING (CIV/MIL, MY) observed 1630 UTC 02 June 2020
Temperature: 25.0°C (77°F)
Dewpoint: 24.0°C (75°F) [RH = 94%]
Pressure (altimeter): 29.88 inches Hg (1012.0 mb)
Winds: from the WSW (240 degrees) at 3 MPH (3 knots; 1.5 m/s)
Visibility: 6 or more miles (10+ km)
Ceiling: at least 12,000 feet AGL
Clouds: few clouds at 2000 feet AGL
Weather: no significant weather observed at this time

METAR text: WBGG 021600Z VRB02KT 9999 FEW020 25/24 Q1012 NOSIG
Conditions at: WBGG (KUCHING (CIV/MIL, MY) observed 1600 UTC 02 June 2020
Temperature: 25.0°C (77°F)
Dewpoint: 24.0°C (75°F) [RH = 94%]
Pressure (altimeter): 29.88 inches Hg (1012.0 mb)
Winds: variable direction winds at 2 MPH (2 knots; 1.0 m/s)
Visibility: 6 or more miles (10+ km)
Ceiling: at least 12,000 feet AGL
Clouds: few clouds at 2000 feet AGL
Weather: no significant weather observed at this time

METAR text: WBGG 021530Z VRB02KT 9999 FEW020 25/25 Q1012 NOSIG
Conditions at: WBGG (KUCHING (CIV/MIL, MY) observed 1530 UTC 02 June 2020
Temperature: 25.0°C (77°F)
Dewpoint: 25.0°C (77°F) [RH = 100%]
Pressure (altimeter): 29.88 inches Hg (1012.0 mb)
Winds: variable direction winds at 2 MPH (2 knots; 1.0 m/s)
Visibility: 6 or more miles (10+ km)
Ceiling: at least 12,000 feet AGL
Clouds: few clouds at 2000 feet AGL
Weather: no significant weather observed at this time

METAR text: WBGG 021500Z VRB02KT 9999 FEW020 25/25 Q1012 NOSIG
Conditions at: WBGG (KUCHING (CIV/MIL, MY) observed 1500 UTC 02 June 2020
Temperature: 25.0°C (77°F)
Dewpoint: 25.0°C (77°F) [RH = 100%]
Pressure (altimeter): 29.88 inches Hg (1012.0 mb)
Winds: variable direction winds at 2 MPH (2 knots; 1.0 m/s)
Visibility: 6 or more miles (10+ km)
Ceiling: at least 12,000 feet AGL
Clouds: few clouds at 2000 feet AGL
Weather: no significant weather observed at this time

METAR text: WBGG 021430Z VRB03KT 9999 FEW020 25/25 Q1012 NOSIG
Conditions at: WBGG (KUCHING (CIV/MIL, MY) observed 1430 UTC 02 June 2020
Temperature: 25.0°C (77°F)
Dewpoint: 25.0°C (77°F) [RH = 100%]
Pressure (altimeter): 29.88 inches Hg (1012.0 mb)
Winds: variable direction winds at 3 MPH (3 knots; 1.5 m/s)
Visibility: 6 or more miles (10+ km)
Ceiling: at least 12,000 feet AGL
Clouds: few clouds at 2000 feet AGL
Weather: no significant weather observed at this time

METAR text: WBGG 021400Z 00000KT 9999 FEW020 25/25 Q1012 NOSIG
Conditions at: WBGG (KUCHING (CIV/MIL, MY) observed 1400 UTC 02 June 2020
Temperature: 25.0°C (77°F)
Dewpoint: 25.0°C (77°F) [RH = 100%]
Pressure (altimeter): 29.88 inches Hg (1012.0 mb)
Winds: calm
Visibility: 6 or more miles (10+ km)
Ceiling: at least 12,000 feet AGL
Clouds: few clouds at 2000 feet AGL
Weather: no significant weather observed at this time

METAR text: WBGG 021330Z VRB03KT 9999 FEW020 25/25 Q1012 NOSIG
Conditions at: WBGG (KUCHING (CIV/MIL, MY) observed 1330 UTC 02 June 2020
Temperature: 25.0°C (77°F)
Dewpoint: 25.0°C (77°F) [RH = 100%]
Pressure (altimeter): 29.88 inches Hg (1012.0 mb)
Winds: variable direction winds at 3 MPH (3 knots; 1.5 m/s)
Visibility: 6 or more miles (10+ km)
Ceiling: at least 12,000 feet AGL
Clouds: few clouds at 2000 feet AGL
Weather: no significant weather observed at this time

METAR text: WBGG 021300Z VRB02KT 9999 FEW020 25/25 Q1011 NOSIG
Conditions at: WBGG (KUCHING (CIV/MIL, MY) observed 1300 UTC 02 June 2020
Temperature: 25.0°C (77°F)
Dewpoint: 25.0°C (77°F) [RH = 100%]
Pressure (altimeter): 29.85 inches Hg (1011.0 mb)
Winds: variable direction winds at 2 MPH (2 knots; 1.0 m/s)
Visibility: 6 or more miles (10+ km)
Ceiling: at least 12,000 feet AGL
Clouds: few clouds at 2000 feet AGL
Weather: no significant weather observed at this time

METAR text: WBGG 021230Z VRB03KT 9999 FEW020 25/25 Q1011 NOSIG
Conditions at: WBGG (KUCHING (CIV/MIL, MY) observed 1230 UTC 02 June 2020
Temperature: 25.0°C (77°F)
Dewpoint: 25.0°C (77°F) [RH = 100%]
Pressure (altimeter): 29.85 inches Hg (1011.0 mb)
Winds: variable direction winds at 3 MPH (3 knots; 1.5 m/s)
Visibility: 6 or more miles (10+ km)
Ceiling: at least 12,000 feet AGL
Clouds: few clouds at 2000 feet AGL
Weather: no significant weather observed at this time

METAR text: WBGG 021200Z VRB01KT 9999 FEW020 25/25 Q1010 NOSIG
Conditions at: WBGG (KUCHING (CIV/MIL, MY) observed 1200 UTC 02 June 2020
Temperature: 25.0°C (77°F)
Dewpoint: 25.0°C (77°F) [RH = 100%]
Pressure (altimeter): 29.82 inches Hg (1010.0 mb)
Winds: variable direction winds at 1 MPH (1 knots; 0.5 m/s)
Visibility: 6 or more miles (10+ km)
Ceiling: at least 12,000 feet AGL
Clouds: few clouds at 2000 feet AGL
Weather: no significant weather observed at this time

METAR text: WBGG 021130Z VRB02KT 9999 SCT020 25/25 Q1010 NOSIG
Conditions at: WBGG (KUCHING (CIV/MIL, MY) observed 1130 UTC 02 June 2020
Temperature: 25.0°C (77°F)
Dewpoint: 25.0°C (77°F) [RH = 100%]
Pressure (altimeter): 29.82 inches Hg (1010.0 mb)
Winds: variable direction winds at 2 MPH (2 knots; 1.0 m/s)
Visibility: 6 or more miles (10+ km)
Ceiling: at least 12,000 feet AGL
Clouds: scattered clouds at 2000 feet AGL
Weather: no significant weather observed at this time

METAR text: WBGG 021100Z 00000KT 9999 SCT020 25/24 Q1009 RETSRA NOSIG
Conditions at: WBGG (KUCHING (CIV/MIL, MY) observed 1100 UTC 02 June 2020
Temperature: 25.0°C (77°F)
Dewpoint: 24.0°C (75°F) [RH = 94%]
Pressure (altimeter): 29.79 inches Hg (1009.0 mb)
Winds: calm
Visibility: 6 or more miles (10+ km)
Ceiling: at least 12,000 feet AGL
Clouds: scattered clouds at 2000 feet AGL
Weather: no significant weather observed at this time

METAR text: WBGG 021030Z 16005KT 110V180 8000 -RA FEW015CB SCT020 25/24 Q1009 NOSIG
Conditions at: WBGG (KUCHING (CIV/MIL, MY) observed 1030 UTC 02 June 2020
Temperature: 25.0°C (77°F)
Dewpoint: 24.0°C (75°F) [RH = 94%]
Pressure (altimeter): 29.79 inches Hg (1009.0 mb)
Winds: from the SSE (160 degrees) at 6 MPH (5 knots; 2.6 m/s)
Visibility: 5 miles ( 8 km)
Ceiling: at least 12,000 feet AGL
Clouds: few clouds at 1500 feet AGL
scattered clouds at 2000 feet AGL
Weather: -RA  (light rain)

METAR text: WBGG 021000Z 20005KT 170V270 6000 -TSRA FEW015CB SCT020 25/24 Q1008 NOSIG
Conditions at: WBGG (KUCHING (CIV/MIL, MY) observed 1000 UTC 02 June 2020
Temperature: 25.0°C (77°F)
Dewpoint: 24.0°C (75°F) [RH = 94%]
Pressure (altimeter): 29.76 inches Hg (1008.0 mb)
Winds: from the SSW (200 degrees) at 6 MPH (5 knots; 2.6 m/s)
Visibility: 4 miles ( 6 km)
Ceiling: at least 12,000 feet AGL
Clouds: few clouds at 1500 feet AGL
scattered clouds at 2000 feet AGL
Weather: -TSRA  (light rain associated with thunderstorm(s))

METAR text: WBGG 020930Z 20008KT 170V240 4000 TSRA FEW015CB SCT020 26/24 Q1008 NOSIG
Conditions at: WBGG (KUCHING (CIV/MIL, MY) observed 0930 UTC 02 June 2020
Temperature: 26.0°C (79°F)
Dewpoint: 24.0°C (75°F) [RH = 89%]
Pressure (altimeter): 29.76 inches Hg (1008.0 mb)
Winds: from the SSW (200 degrees) at 9 MPH (8 knots; 4.1 m/s)
Visibility: 2.49 miles (4.01 km)
Ceiling: at least 12,000 feet AGL
Clouds: few clouds at 1500 feet AGL
scattered clouds at 2000 feet AGL
Weather: TSRA  (rain associated with thunderstorm(s))

METAR text: WBGG 020900Z 32005KT 240V050 3000 +TSRA FEW015CB SCT020 27/26 Q1008 TEMPO 4000 -TSRA
Conditions at: WBGG (KUCHING (CIV/MIL, MY) observed 0900 UTC 02 June 2020
Temperature: 27.0°C (81°F)
Dewpoint: 26.0°C (79°F) [RH = 94%]
Pressure (altimeter): 29.76 inches Hg (1008.0 mb)
Winds: from the NW (320 degrees) at 6 MPH (5 knots; 2.6 m/s)
Visibility: 1.86 miles (2.99 km)
Ceiling: at least 12,000 feet AGL
Clouds: few clouds at 1500 feet AGL
scattered clouds at 2000 feet AGL
Weather: +TSRA  (heavy rain associated with thunderstorm(s))

METAR text: WBGG 020830Z VRB03KT 3000 -SHRA FEW015CB SCT020 30/25 Q1008 TEMPO 3000 -SHRA
Conditions at: WBGG (KUCHING (CIV/MIL, MY) observed 0830 UTC 02 June 2020
Temperature: 30.0°C (86°F)
Dewpoint: 25.0°C (77°F) [RH = 75%]
Pressure (altimeter): 29.76 inches Hg (1008.0 mb)
Winds: variable direction winds at 3 MPH (3 knots; 1.5 m/s)
Visibility: 1.86 miles (2.99 km)
Ceiling: at least 12,000 feet AGL
Clouds: few clouds at 1500 feet AGL
scattered clouds at 2000 feet AGL
Weather: -SHRA  (light rain showers)

METAR text: WBGG 020800Z 08006KT 030V120 9999 FEW015CB SCT020 32/25 Q1008 NOSIG
Conditions at: WBGG (KUCHING (CIV/MIL, MY) observed 0800 UTC 02 June 2020
Temperature: 32.0°C (90°F)
Dewpoint: 25.0°C (77°F) [RH = 67%]
Pressure (altimeter): 29.76 inches Hg (1008.0 mb)
Winds: from the E (80 degrees) at 7 MPH (6 knots; 3.1 m/s)
Visibility: 6 or more miles (10+ km)
Ceiling: at least 12,000 feet AGL
Clouds: few clouds at 1500 feet AGL
scattered clouds at 2000 feet AGL
Weather: no significant weather observed at this time

METAR text: WBGG 020730Z 11007KT 040V160 9999 FEW015CB 33/25 Q1007 NOSIG
Conditions at: WBGG (KUCHING (CIV/MIL, MY) observed 0730 UTC 02 June 2020
Temperature: 33.0°C (91°F)
Dewpoint: 25.0°C (77°F) [RH = 63%]
Pressure (altimeter): 29.73 inches Hg (1007.0 mb)
Winds: from the ESE (110 degrees) at 8 MPH (7 knots; 3.6 m/s)
Visibility: 6 or more miles (10+ km)
Ceiling: at least 12,000 feet AGL
Clouds: few clouds at 1500 feet AGL
Weather: no significant weather observed at this time

METAR text: WBGG 020700Z 07005KT 020V120 9999 FEW015CB SCT020 33/25 Q1008 NOSIG
Conditions at: WBGG (KUCHING (CIV/MIL, MY) observed 0700 UTC 02 June 2020
Temperature: 33.0°C (91°F)
Dewpoint: 25.0°C (77°F) [RH = 63%]
Pressure (altimeter): 29.76 inches Hg (1008.0 mb)
Winds: from the ENE (70 degrees) at 6 MPH (5 knots; 2.6 m/s)
Visibility: 6 or more miles (10+ km)
Ceiling: at least 12,000 feet AGL
Clouds: few clouds at 1500 feet AGL
scattered clouds at 2000 feet AGL
Weather: no significant weather observed at this time

METAR text: WBGG 020630Z 05004KT 320V120 9999 FEW015CB SCT020 33/25 Q1008 NOSIG
Conditions at: WBGG (KUCHING (CIV/MIL, MY) observed 0630 UTC 02 June 2020
Temperature: 33.0°C (91°F)
Dewpoint: 25.0°C (77°F) [RH = 63%]
Pressure (altimeter): 29.76 inches Hg (1008.0 mb)
Winds: from the NE (50 degrees) at 5 MPH (4 knots; 2.1 m/s)
Visibility: 6 or more miles (10+ km)
Ceiling: at least 12,000 feet AGL
Clouds: few clouds at 1500 feet AGL
scattered clouds at 2000 feet AGL
Weather: no significant weather observed at this time

METAR text: WBGG 020600Z VRB03KT 9999 FEW015CB SCT020 33/25 Q1009 NOSIG
Conditions at: WBGG (KUCHING (CIV/MIL, MY) observed 0600 UTC 02 June 2020
Temperature: 33.0°C (91°F)
Dewpoint: 25.0°C (77°F) [RH = 63%]
Pressure (altimeter): 29.79 inches Hg (1009.0 mb)
Winds: variable direction winds at 3 MPH (3 knots; 1.5 m/s)
Visibility: 6 or more miles (10+ km)
Ceiling: at least 12,000 feet AGL
Clouds: few clouds at 1500 feet AGL
scattered clouds at 2000 feet AGL
Weather: no significant weather observed at this time

Forecast for: WBGG (KUCHING (CIV/MIL, MY)
Text: TAF WBGG 031700Z 0318/0418 VRB03KT 9999 FEW020
Forecast period: 1800 UTC 03 June 2020 to 1800 UTC 04 June 2020
Forecast type: FROM: standard forecast or significant change
Winds: variable direction winds at 3 MPH (3 knots; 1.5 m/s)
Visibility: 6 or more miles 10+ km)
Ceiling: at least 12,000 feet AGL
Clouds: few clouds at 2000 feet AGL
Weather: no significant weather forecast for this period